sensor_id;sensor_type;location;lat;lon;timestamp;P1;durP1;ratioP1;P2;durP2;ratioP2
3101;SDS011;1561;42.666;23.392;2022-11-15T00:00:50;77.93;;;43.93;;
3101;SDS011;1561;42.666;23.392;2022-11-15T00:03:20;145.10;;;76.43;;
3101;SDS011;1561;42.666;23.392;2022-11-15T00:05:52;118.83;;;69.93;;
3101;SDS011;1561;42.666;23.392;2022-11-15T00:08:40;179.73;;;97.03;;
3101;SDS011;1561;42.666;23.392;2022-11-15T00:11:10;191.03;;;102.73;;
3101;SDS011;1561;42.666;23.392;2022-11-15T00:13:38;178.77;;;102.77;;
3101;SDS011;1561;42.666;23.392;2022-11-15T00:16:08;201.57;;;104.17;;
3101;SDS011;1561;42.666;23.392;2022-11-15T00:18:35;177.60;;;97.23;;
3101;SDS011;1561;42.666;23.392;2022-11-15T00:21:05;191.90;;;108.60;;
3101;SDS011;1561;42.666;23.392;2022-11-15T00:23:35;205.60;;;110.93;;
3101;SDS011;1561;42.666;23.392;2022-11-15T00:26:03;183.77;;;103.00;;
3101;SDS011;1561;42.666;23.392;2022-11-15T00:28:31;201.63;;;104.10;;
3101;SDS011;1561;42.666;23.392;2022-11-15T00:31:01;178.73;;;96.53;;
3101;SDS011;1561;42.666;23.392;2022-11-15T00:33:33;131.67;;;63.10;;
3101;SDS011;1561;42.666;23.392;2022-11-15T00:36:00;202.43;;;109.13;;
3101;SDS011;1561;42.666;23.392;2022-11-15T00:38:30;187.93;;;100.80;;
3101;SDS011;1561;42.666;23.392;2022-11-15T00:40:57;126.13;;;70.00;;
3101;SDS011;1561;42.666;23.392;2022-11-15T00:43:27;190.00;;;102.50;;
3101;SDS011;1561;42.666;23.392;2022-11-15T00:45:55;163.17;;;86.37;;
3101;SDS011;1561;42.666;23.392;2022-11-15T00:48:22;193.93;;;107.03;;
3101;SDS011;1561;42.666;23.392;2022-11-15T00:50:50;177.80;;;95.60;;
3101;SDS011;1561;42.666;23.392;2022-11-15T00:53:17;184.83;;;99.60;;
3101;SDS011;1561;42.666;23.392;2022-11-15T00:55:44;197.33;;;108.20;;
3101;SDS011;1561;42.666;23.392;2022-11-15T00:58:10;173.47;;;98.27;;
3101;SDS011;1561;42.666;23.392;2022-11-15T01:00:38;184.50;;;102.97;;
3101;SDS011;1561;42.666;23.392;2022-11-15T01:03:07;191.60;;;102.60;;
3101;SDS011;1561;42.666;23.392;2022-11-15T01:05:36;179.57;;;99.63;;
3101;SDS011;1561;42.666;23.392;2022-11-15T01:08:10;200.77;;;107.40;;
3101;SDS011;1561;42.666;23.392;2022-11-15T01:10:39;211.40;;;108.43;;
3101;SDS011;1561;42.666;23.392;2022-11-15T01:13:06;194.10;;;107.00;;
3101;SDS011;1561;42.666;23.392;2022-11-15T01:15:38;207.30;;;110.57;;
3101;SDS011;1561;42.666;23.392;2022-11-15T01:18:07;193.93;;;108.57;;
3101;SDS011;1561;42.666;23.392;2022-11-15T01:20:38;203.87;;;111.43;;
3101;SDS011;1561;42.666;23.392;2022-11-15T01:23:08;218.87;;;116.20;;
3101;SDS011;1561;42.666;23.392;2022-11-15T01:25:35;212.23;;;118.27;;
3101;SDS011;1561;42.666;23.392;2022-11-15T01:28:03;218.00;;;123.07;;
3101;SDS011;1561;42.666;23.392;2022-11-15T01:30:30;164.10;;;94.90;;
3101;SDS011;1561;42.666;23.392;2022-11-15T01:32:58;166.53;;;93.67;;
3101;SDS011;1561;42.666;23.392;2022-11-15T01:35:25;210.23;;;114.50;;
3101;SDS011;1561;42.666;23.392;2022-11-15T01:37:52;215.87;;;115.33;;
3101;SDS011;1561;42.666;23.392;2022-11-15T01:40:21;244.20;;;128.73;;
3101;SDS011;1561;42.666;23.392;2022-11-15T01:42:50;219.27;;;118.97;;
3101;SDS011;1561;42.666;23.392;2022-11-15T01:45:17;225.90;;;117.67;;
3101;SDS011;1561;42.666;23.392;2022-11-15T01:47:44;246.10;;;136.43;;
3101;SDS011;1561;42.666;23.392;2022-11-15T01:50:18;256.90;;;135.90;;
3101;SDS011;1561;42.666;23.392;2022-11-15T01:52:52;229.10;;;122.77;;
3101;SDS011;1561;42.666;23.392;2022-11-15T01:55:20;212.63;;;114.13;;
3101;SDS011;1561;42.666;23.392;2022-11-15T01:57:49;218.00;;;120.07;;
3101;SDS011;1561;42.666;23.392;2022-11-15T02:00:21;229.73;;;126.47;;
3101;SDS011;1561;42.666;23.392;2022-11-15T02:02:50;226.43;;;121.17;;
3101;SDS011;1561;42.666;23.392;2022-11-15T02:05:20;216.00;;;121.50;;
3101;SDS011;1561;42.666;23.392;2022-11-15T02:07:47;216.27;;;113.80;;
3101;SDS011;1561;42.666;23.392;2022-11-15T02:10:17;208.20;;;103.00;;
3101;SDS011;1561;42.666;23.392;2022-11-15T02:12:46;188.47;;;97.13;;
3101;SDS011;1561;42.666;23.392;2022-11-15T02:15:14;183.87;;;95.80;;
3101;SDS011;1561;42.666;23.392;2022-11-15T02:17:48;191.23;;;100.40;;
3101;SDS011;1561;42.666;23.392;2022-11-15T02:20:30;168.53;;;95.67;;
3101;SDS011;1561;42.666;23.392;2022-11-15T02:29:10;186.63;;;95.77;;
3101;SDS011;1561;42.666;23.392;2022-11-15T02:31:45;178.07;;;94.60;;
3101;SDS011;1561;42.666;23.392;2022-11-15T02:34:16;191.65;;;121.15;;
3101;SDS011;1561;42.666;23.392;2022-11-15T02:36:55;153.27;;;87.23;;
3101;SDS011;1561;42.666;23.392;2022-11-15T02:39:32;146.83;;;79.50;;
3101;SDS011;1561;42.666;23.392;2022-11-15T02:42:06;166.20;;;83.77;;
3101;SDS011;1561;42.666;23.392;2022-11-15T02:44:51;164.27;;;81.13;;
3101;SDS011;1561;42.666;23.392;2022-11-15T02:47:24;145.37;;;80.20;;
3101;SDS011;1561;42.666;23.392;2022-11-15T02:49:54;149.43;;;79.40;;
3101;SDS011;1561;42.666;23.392;2022-11-15T02:52:24;145.17;;;75.57;;
3101;SDS011;1561;42.666;23.392;2022-11-15T02:54:53;149.63;;;74.27;;
3101;SDS011;1561;42.666;23.392;2022-11-15T02:57:23;172.73;;;79.17;;
3101;SDS011;1561;42.666;23.392;2022-11-15T03:00:06;173.13;;;75.13;;
3101;SDS011;1561;42.666;23.392;2022-11-15T03:02:45;162.60;;;77.60;;
3101;SDS011;1561;42.666;23.392;2022-11-15T03:05:25;161.23;;;74.47;;
3101;SDS011;1561;42.666;23.392;2022-11-15T03:08:02;148.80;;;75.50;;
3101;SDS011;1561;42.666;23.392;2022-11-15T03:10:38;150.67;;;77.37;;
3101;SDS011;1561;42.666;23.392;2022-11-15T03:13:17;149.03;;;75.67;;
3101;SDS011;1561;42.666;23.392;2022-11-15T03:16:01;140.30;;;74.70;;
3101;SDS011;1561;42.666;23.392;2022-11-15T03:18:33;140.67;;;72.70;;
3101;SDS011;1561;42.666;23.392;2022-11-15T03:21:04;146.30;;;71.13;;
3101;SDS011;1561;42.666;23.392;2022-11-15T03:23:34;150.87;;;68.97;;
3101;SDS011;1561;42.666;23.392;2022-11-15T03:26:03;133.43;;;72.77;;
3101;SDS011;1561;42.666;23.392;2022-11-15T03:28:40;140.37;;;71.40;;
3101;SDS011;1561;42.666;23.392;2022-11-15T03:31:13;139.17;;;70.20;;
3101;SDS011;1561;42.666;23.392;2022-11-15T03:34:02;140.33;;;67.77;;
3101;SDS011;1561;42.666;23.392;2022-11-15T03:36:31;146.90;;;68.47;;
3101;SDS011;1561;42.666;23.392;2022-11-15T03:39:01;144.17;;;69.57;;
3101;SDS011;1561;42.666;23.392;2022-11-15T03:41:33;133.50;;;70.70;;
3101;SDS011;1561;42.666;23.392;2022-11-15T03:44:09;139.87;;;67.13;;
3101;SDS011;1561;42.666;23.392;2022-11-15T03:46:43;147.53;;;70.60;;
3101;SDS011;1561;42.666;23.392;2022-11-15T03:49:20;125.37;;;62.80;;
3101;SDS011;1561;42.666;23.392;2022-11-15T03:51:51;141.73;;;64.43;;
3101;SDS011;1561;42.666;23.392;2022-11-15T03:54:18;189.40;;;72.60;;
3101;SDS011;1561;42.666;23.392;2022-11-15T03:56:46;135.60;;;66.83;;
3101;SDS011;1561;42.666;23.392;2022-11-15T03:59:14;156.10;;;67.60;;
3101;SDS011;1561;42.666;23.392;2022-11-15T04:01:42;148.77;;;64.77;;
3101;SDS011;1561;42.666;23.392;2022-11-15T04:04:08;160.60;;;70.67;;
3101;SDS011;1561;42.666;23.392;2022-11-15T04:06:38;166.13;;;65.67;;
3101;SDS011;1561;42.666;23.392;2022-11-15T04:09:05;166.50;;;70.27;;
3101;SDS011;1561;42.666;23.392;2022-11-15T04:11:33;176.87;;;66.03;;
3101;SDS011;1561;42.666;23.392;2022-11-15T04:14:01;192.77;;;64.67;;
3101;SDS011;1561;42.666;23.392;2022-11-15T04:16:30;163.43;;;58.57;;
3101;SDS011;1561;42.666;23.392;2022-11-15T04:18:57;178.40;;;64.33;;
3101;SDS011;1561;42.666;23.392;2022-11-15T04:21:44;131.17;;;59.47;;
3101;SDS011;1561;42.666;23.392;2022-11-15T04:24:28;124.40;;;53.70;;
3101;SDS011;1561;42.666;23.392;2022-11-15T04:26:55;140.77;;;55.00;;
3101;SDS011;1561;42.666;23.392;2022-11-15T04:29:22;135.97;;;61.83;;
3101;SDS011;1561;42.666;23.392;2022-11-15T04:32:02;136.47;;;58.47;;
3101;SDS011;1561;42.666;23.392;2022-11-15T04:34:29;124.67;;;57.37;;
3101;SDS011;1561;42.666;23.392;2022-11-15T04:36:57;113.23;;;53.57;;
3101;SDS011;1561;42.666;23.392;2022-11-15T04:39:41;113.33;;;51.23;;
3101;SDS011;1561;42.666;23.392;2022-11-15T04:42:09;108.47;;;52.30;;
3101;SDS011;1561;42.666;23.392;2022-11-15T04:44:36;114.53;;;53.83;;
3101;SDS011;1561;42.666;23.392;2022-11-15T04:47:03;121.90;;;52.83;;
3101;SDS011;1561;42.666;23.392;2022-11-15T04:49:31;107.97;;;49.40;;
3101;SDS011;1561;42.666;23.392;2022-11-15T04:51:59;106.43;;;51.73;;
3101;SDS011;1561;42.666;23.392;2022-11-15T04:54:26;136.27;;;54.07;;
3101;SDS011;1561;42.666;23.392;2022-11-15T04:56:53;115.17;;;51.77;;
3101;SDS011;1561;42.666;23.392;2022-11-15T04:59:20;111.40;;;53.60;;
3101;SDS011;1561;42.666;23.392;2022-11-15T05:01:46;130.70;;;51.90;;
3101;SDS011;1561;42.666;23.392;2022-11-15T05:04:26;121.63;;;52.23;;
3101;SDS011;1561;42.666;23.392;2022-11-15T05:06:53;135.50;;;44.90;;
3101;SDS011;1561;42.666;23.392;2022-11-15T05:09:24;136.00;;;42.37;;
3101;SDS011;1561;42.666;23.392;2022-11-15T05:11:50;153.37;;;44.40;;
3101;SDS011;1561;42.666;23.392;2022-11-15T05:14:18;95.50;;;38.23;;
3101;SDS011;1561;42.666;23.392;2022-11-15T05:16:46;131.37;;;35.50;;
3101;SDS011;1561;42.666;23.392;2022-11-15T05:19:13;138.20;;;34.67;;
3101;SDS011;1561;42.666;23.392;2022-11-15T05:21:40;267.47;;;50.10;;
3101;SDS011;1561;42.666;23.392;2022-11-15T05:24:08;138.03;;;38.30;;
3101;SDS011;1561;42.666;23.392;2022-11-15T05:26:37;162.20;;;38.70;;
3101;SDS011;1561;42.666;23.392;2022-11-15T05:29:04;155.23;;;37.40;;
3101;SDS011;1561;42.666;23.392;2022-11-15T05:31:30;120.37;;;36.47;;
3101;SDS011;1561;42.666;23.392;2022-11-15T05:34:06;145.00;;;43.47;;
3101;SDS011;1561;42.666;23.392;2022-11-15T05:36:37;109.00;;;36.40;;
3101;SDS011;1561;42.666;23.392;2022-11-15T05:39:10;165.20;;;36.03;;
3101;SDS011;1561;42.666;23.392;2022-11-15T05:41:41;152.03;;;41.07;;
3101;SDS011;1561;42.666;23.392;2022-11-15T05:44:13;138.47;;;35.73;;
3101;SDS011;1561;42.666;23.392;2022-11-15T05:46:43;106.07;;;33.53;;
3101;SDS011;1561;42.666;23.392;2022-11-15T05:49:16;118.63;;;34.23;;
3101;SDS011;1561;42.666;23.392;2022-11-15T05:51:47;161.43;;;35.53;;
3101;SDS011;1561;42.666;23.392;2022-11-15T05:54:17;59.60;;;27.87;;
3101;SDS011;1561;42.666;23.392;2022-11-15T05:56:49;103.20;;;33.37;;
3101;SDS011;1561;42.666;23.392;2022-11-15T05:59:17;98.40;;;33.77;;
3101;SDS011;1561;42.666;23.392;2022-11-15T06:01:47;95.80;;;33.97;;
3101;SDS011;1561;42.666;23.392;2022-11-15T06:04:14;105.10;;;33.20;;
3101;SDS011;1561;42.666;23.392;2022-11-15T06:06:42;89.37;;;30.67;;
3101;SDS011;1561;42.666;23.392;2022-11-15T06:09:09;90.17;;;32.37;;
3101;SDS011;1561;42.666;23.392;2022-11-15T06:11:36;110.40;;;33.43;;
3101;SDS011;1561;42.666;23.392;2022-11-15T06:14:07;102.90;;;34.77;;
3101;SDS011;1561;42.666;23.392;2022-11-15T06:16:34;75.53;;;32.20;;
3101;SDS011;1561;42.666;23.392;2022-11-15T06:19:05;92.53;;;37.33;;
3101;SDS011;1561;42.666;23.392;2022-11-15T06:21:33;86.90;;;34.53;;
3101;SDS011;1561;42.666;23.392;2022-11-15T06:24:00;65.07;;;30.60;;
3101;SDS011;1561;42.666;23.392;2022-11-15T06:26:27;77.27;;;30.27;;
3101;SDS011;1561;42.666;23.392;2022-11-15T06:28:55;68.67;;;29.90;;
3101;SDS011;1561;42.666;23.392;2022-11-15T06:31:23;82.17;;;31.17;;
3101;SDS011;1561;42.666;23.392;2022-11-15T06:33:52;49.20;;;25.37;;
3101;SDS011;1561;42.666;23.392;2022-11-15T06:36:19;42.83;;;22.50;;
3101;SDS011;1561;42.666;23.392;2022-11-15T06:38:46;44.43;;;22.10;;
3101;SDS011;1561;42.666;23.392;2022-11-15T06:41:13;39.83;;;21.30;;
3101;SDS011;1561;42.666;23.392;2022-11-15T06:43:40;33.80;;;16.40;;
3101;SDS011;1561;42.666;23.392;2022-11-15T06:46:09;34.33;;;18.70;;
3101;SDS011;1561;42.666;23.392;2022-11-15T06:48:39;33.90;;;17.20;;
3101;SDS011;1561;42.666;23.392;2022-11-15T06:51:08;43.53;;;23.70;;
3101;SDS011;1561;42.666;23.392;2022-11-15T06:53:35;35.60;;;21.23;;
3101;SDS011;1561;42.666;23.392;2022-11-15T06:56:05;38.23;;;21.10;;
3101;SDS011;1561;42.666;23.392;2022-11-15T06:58:37;31.53;;;18.43;;
3101;SDS011;1561;42.666;23.392;2022-11-15T07:01:08;32.80;;;19.53;;
3101;SDS011;1561;42.666;23.392;2022-11-15T07:03:41;33.37;;;19.17;;
3101;SDS011;1561;42.666;23.392;2022-11-15T07:06:11;36.60;;;19.90;;
3101;SDS011;1561;42.666;23.392;2022-11-15T07:08:41;40.70;;;23.60;;
3101;SDS011;1561;42.666;23.392;2022-11-15T07:11:09;35.23;;;20.40;;
3101;SDS011;1561;42.666;23.392;2022-11-15T07:13:37;35.60;;;21.03;;
3101;SDS011;1561;42.666;23.392;2022-11-15T07:16:08;35.50;;;20.23;;
3101;SDS011;1561;42.666;23.392;2022-11-15T07:18:36;32.03;;;20.30;;
3101;SDS011;1561;42.666;23.392;2022-11-15T07:21:06;34.63;;;20.87;;
3101;SDS011;1561;42.666;23.392;2022-11-15T07:23:40;37.00;;;21.87;;
3101;SDS011;1561;42.666;23.392;2022-11-15T07:26:10;36.93;;;20.23;;
3101;SDS011;1561;42.666;23.392;2022-11-15T07:28:42;29.60;;;18.00;;
3101;SDS011;1561;42.666;23.392;2022-11-15T07:31:09;33.27;;;19.10;;
3101;SDS011;1561;42.666;23.392;2022-11-15T07:33:38;34.13;;;19.40;;
3101;SDS011;1561;42.666;23.392;2022-11-15T07:36:09;38.10;;;21.93;;
3101;SDS011;1561;42.666;23.392;2022-11-15T07:38:36;33.50;;;19.30;;
3101;SDS011;1561;42.666;23.392;2022-11-15T07:41:08;31.37;;;18.57;;
3101;SDS011;1561;42.666;23.392;2022-11-15T07:43:38;38.27;;;19.40;;
3101;SDS011;1561;42.666;23.392;2022-11-15T07:46:07;35.57;;;20.47;;
3101;SDS011;1561;42.666;23.392;2022-11-15T07:48:35;34.27;;;19.67;;
3101;SDS011;1561;42.666;23.392;2022-11-15T07:51:09;34.83;;;20.50;;
3101;SDS011;1561;42.666;23.392;2022-11-15T07:53:39;42.93;;;22.10;;
3101;SDS011;1561;42.666;23.392;2022-11-15T07:56:10;42.20;;;20.27;;
3101;SDS011;1561;42.666;23.392;2022-11-15T07:58:41;44.93;;;23.60;;
3101;SDS011;1561;42.666;23.392;2022-11-15T08:01:12;68.67;;;34.77;;
3101;SDS011;1561;42.666;23.392;2022-11-15T08:03:41;47.00;;;26.70;;
3101;SDS011;1561;42.666;23.392;2022-11-15T08:06:10;39.53;;;22.80;;
3101;SDS011;1561;42.666;23.392;2022-11-15T08:08:40;50.30;;;27.90;;
3101;SDS011;1561;42.666;23.392;2022-11-15T08:11:07;42.27;;;24.90;;
3101;SDS011;1561;42.666;23.392;2022-11-15T08:13:34;50.03;;;29.80;;
3101;SDS011;1561;42.666;23.392;2022-11-15T08:16:02;43.17;;;25.23;;
3101;SDS011;1561;42.666;23.392;2022-11-15T08:18:34;44.63;;;24.90;;
3101;SDS011;1561;42.666;23.392;2022-11-15T08:21:03;44.97;;;27.73;;
3101;SDS011;1561;42.666;23.392;2022-11-15T08:23:32;42.17;;;27.77;;
3101;SDS011;1561;42.666;23.392;2022-11-15T08:26:00;50.13;;;31.30;;
3101;SDS011;1561;42.666;23.392;2022-11-15T08:28:28;44.50;;;26.80;;
3101;SDS011;1561;42.666;23.392;2022-11-15T08:30:57;50.07;;;29.23;;
3101;SDS011;1561;42.666;23.392;2022-11-15T08:33:24;49.57;;;30.63;;
3101;SDS011;1561;42.666;23.392;2022-11-15T08:35:55;56.70;;;30.10;;
3101;SDS011;1561;42.666;23.392;2022-11-15T08:38:22;57.73;;;30.27;;
3101;SDS011;1561;42.666;23.392;2022-11-15T08:40:51;54.17;;;30.67;;
3101;SDS011;1561;42.666;23.392;2022-11-15T08:43:23;53.03;;;31.80;;
3101;SDS011;1561;42.666;23.392;2022-11-15T08:45:55;53.77;;;30.63;;
3101;SDS011;1561;42.666;23.392;2022-11-15T08:48:26;58.70;;;31.93;;
3101;SDS011;1561;42.666;23.392;2022-11-15T08:50:54;60.10;;;33.03;;
3101;SDS011;1561;42.666;23.392;2022-11-15T08:53:23;63.73;;;36.90;;
3101;SDS011;1561;42.666;23.392;2022-11-15T08:55:54;59.53;;;32.80;;
3101;SDS011;1561;42.666;23.392;2022-11-15T08:58:21;59.00;;;30.33;;
3101;SDS011;1561;42.666;23.392;2022-11-15T09:00:49;61.97;;;32.73;;
3101;SDS011;1561;42.666;23.392;2022-11-15T09:03:18;57.53;;;32.13;;
3101;SDS011;1561;42.666;23.392;2022-11-15T09:05:54;51.90;;;30.70;;
3101;SDS011;1561;42.666;23.392;2022-11-15T09:08:23;53.20;;;31.90;;
3101;SDS011;1561;42.666;23.392;2022-11-15T09:10:50;59.33;;;31.33;;
3101;SDS011;1561;42.666;23.392;2022-11-15T09:13:19;62.77;;;36.27;;
3101;SDS011;1561;42.666;23.392;2022-11-15T09:15:47;64.67;;;36.20;;
3101;SDS011;1561;42.666;23.392;2022-11-15T09:18:17;58.93;;;32.90;;
3101;SDS011;1561;42.666;23.392;2022-11-15T09:20:45;64.90;;;34.27;;
3101;SDS011;1561;42.666;23.392;2022-11-15T09:23:13;60.73;;;34.27;;
3101;SDS011;1561;42.666;23.392;2022-11-15T09:25:42;72.77;;;37.13;;
3101;SDS011;1561;42.666;23.392;2022-11-15T09:28:11;69.80;;;36.60;;
3101;SDS011;1561;42.666;23.392;2022-11-15T09:30:43;66.80;;;36.67;;
3101;SDS011;1561;42.666;23.392;2022-11-15T09:33:12;69.20;;;37.73;;
3101;SDS011;1561;42.666;23.392;2022-11-15T09:35:39;63.37;;;36.30;;
3101;SDS011;1561;42.666;23.392;2022-11-15T09:38:15;66.93;;;35.20;;
3101;SDS011;1561;42.666;23.392;2022-11-15T09:40:43;63.93;;;34.93;;
3101;SDS011;1561;42.666;23.392;2022-11-15T09:43:24;62.87;;;34.77;;
3101;SDS011;1561;42.666;23.392;2022-11-15T09:46:02;65.03;;;36.90;;
3101;SDS011;1561;42.666;23.392;2022-11-15T09:48:42;57.23;;;34.30;;
3101;SDS011;1561;42.666;23.392;2022-11-15T09:51:22;65.13;;;35.13;;
3101;SDS011;1561;42.666;23.392;2022-11-15T09:53:55;70.97;;;44.50;;
3101;SDS011;1561;42.666;23.392;2022-11-15T09:56:35;70.23;;;38.80;;
3101;SDS011;1561;42.666;23.392;2022-11-15T09:59:16;62.40;;;38.10;;
3101;SDS011;1561;42.666;23.392;2022-11-15T10:02:09;71.23;;;38.80;;
3101;SDS011;1561;42.666;23.392;2022-11-15T10:04:45;74.00;;;38.90;;
3101;SDS011;1561;42.666;23.392;2022-11-15T10:07:14;62.77;;;37.70;;
3101;SDS011;1561;42.666;23.392;2022-11-15T10:09:47;60.07;;;36.80;;
3101;SDS011;1561;42.666;23.392;2022-11-15T10:12:18;64.07;;;37.17;;
3101;SDS011;1561;42.666;23.392;2022-11-15T10:14:50;73.33;;;40.67;;
3101;SDS011;1561;42.666;23.392;2022-11-15T10:20:44;82.67;;;42.77;;
3101;SDS011;1561;42.666;23.392;2022-11-15T10:23:17;67.67;;;41.03;;
3101;SDS011;1561;42.666;23.392;2022-11-15T10:25:52;87.13;;;43.77;;
3101;SDS011;1561;42.666;23.392;2022-11-15T10:28:25;73.13;;;41.67;;
3101;SDS011;1561;42.666;23.392;2022-11-15T10:31:00;79.80;;;41.10;;
3101;SDS011;1561;42.666;23.392;2022-11-15T10:33:32;66.53;;;39.93;;
3101;SDS011;1561;42.666;23.392;2022-11-15T10:36:14;81.90;;;44.60;;
3101;SDS011;1561;42.666;23.392;2022-11-15T10:38:51;79.23;;;42.67;;
3101;SDS011;1561;42.666;23.392;2022-11-15T10:41:38;79.40;;;41.87;;
3101;SDS011;1561;42.666;23.392;2022-11-15T10:47:19;86.37;;;44.90;;
3101;SDS011;1561;42.666;23.392;2022-11-15T10:49:58;81.43;;;41.37;;
3101;SDS011;1561;42.666;23.392;2022-11-15T10:52:27;74.77;;;41.27;;
3101;SDS011;1561;42.666;23.392;2022-11-15T10:54:59;84.57;;;44.07;;
3101;SDS011;1561;42.666;23.392;2022-11-15T10:57:48;71.00;;;38.30;;
3101;SDS011;1561;42.666;23.392;2022-11-15T11:00:29;79.87;;;38.37;;
3101;SDS011;1561;42.666;23.392;2022-11-15T11:02:59;87.00;;;42.60;;
3101;SDS011;1561;42.666;23.392;2022-11-15T11:05:36;81.67;;;41.60;;
3101;SDS011;1561;42.666;23.392;2022-11-15T11:08:05;68.47;;;40.67;;
3101;SDS011;1561;42.666;23.392;2022-11-15T11:10:52;75.17;;;40.40;;
3101;SDS011;1561;42.666;23.392;2022-11-15T11:13:24;71.43;;;39.50;;
3101;SDS011;1561;42.666;23.392;2022-11-15T11:15:54;74.13;;;41.93;;
3101;SDS011;1561;42.666;23.392;2022-11-15T11:18:27;63.70;;;41.33;;
3101;SDS011;1561;42.666;23.392;2022-11-15T11:21:04;75.87;;;42.50;;
3101;SDS011;1561;42.666;23.392;2022-11-15T11:23:49;62.80;;;36.40;;
3101;SDS011;1561;42.666;23.392;2022-11-15T11:26:31;59.17;;;35.73;;
3101;SDS011;1561;42.666;23.392;2022-11-15T11:29:25;66.33;;;40.23;;
3101;SDS011;1561;42.666;23.392;2022-11-15T11:32:15;55.13;;;32.23;;
3101;SDS011;1561;42.666;23.392;2022-11-15T11:34:56;57.60;;;36.63;;
3101;SDS011;1561;42.666;23.392;2022-11-15T11:37:43;65.57;;;37.13;;
3101;SDS011;1561;42.666;23.392;2022-11-15T11:40:16;61.07;;;36.47;;
3101;SDS011;1561;42.666;23.392;2022-11-15T11:42:58;62.60;;;38.30;;
3101;SDS011;1561;42.666;23.392;2022-11-15T11:45:43;64.60;;;39.50;;
3101;SDS011;1561;42.666;23.392;2022-11-15T11:48:23;64.07;;;38.67;;
3101;SDS011;1561;42.666;23.392;2022-11-15T11:51:03;57.33;;;35.67;;
3101;SDS011;1561;42.666;23.392;2022-11-15T11:53:39;62.00;;;37.33;;
3101;SDS011;1561;42.666;23.392;2022-11-15T11:56:14;52.97;;;34.70;;
3101;SDS011;1561;42.666;23.392;2022-11-15T11:58:49;55.37;;;37.33;;
3101;SDS011;1561;42.666;23.392;2022-11-15T12:01:20;59.90;;;37.50;;
3101;SDS011;1561;42.666;23.392;2022-11-15T12:03:54;61.10;;;37.20;;
3101;SDS011;1561;42.666;23.392;2022-11-15T12:06:25;54.47;;;34.87;;
3101;SDS011;1561;42.666;23.392;2022-11-15T12:09:00;62.17;;;37.40;;
3101;SDS011;1561;42.666;23.392;2022-11-15T12:11:35;56.57;;;36.87;;
3101;SDS011;1561;42.666;23.392;2022-11-15T12:14:22;60.90;;;36.23;;
3101;SDS011;1561;42.666;23.392;2022-11-15T12:16:57;58.60;;;37.13;;
3101;SDS011;1561;42.666;23.392;2022-11-15T12:19:25;62.13;;;37.80;;
3101;SDS011;1561;42.666;23.392;2022-11-15T12:21:54;65.70;;;38.73;;
3101;SDS011;1561;42.666;23.392;2022-11-15T12:24:29;61.07;;;38.87;;
3101;SDS011;1561;42.666;23.392;2022-11-15T12:27:04;62.43;;;37.20;;
3101;SDS011;1561;42.666;23.392;2022-11-15T12:29:37;58.80;;;37.60;;
3101;SDS011;1561;42.666;23.392;2022-11-15T12:32:14;55.47;;;36.37;;
3101;SDS011;1561;42.666;23.392;2022-11-15T12:34:50;67.07;;;36.90;;
3101;SDS011;1561;42.666;23.392;2022-11-15T12:40:27;64.97;;;37.07;;
3101;SDS011;1561;42.666;23.392;2022-11-15T12:46:11;61.30;;;33.93;;
3101;SDS011;1561;42.666;23.392;2022-11-15T12:48:51;68.17;;;39.40;;
3101;SDS011;1561;42.666;23.392;2022-11-15T12:51:20;63.17;;;36.53;;
3101;SDS011;1561;42.666;23.392;2022-11-15T12:53:48;60.30;;;35.70;;
3101;SDS011;1561;42.666;23.392;2022-11-15T12:56:21;64.93;;;40.57;;
3101;SDS011;1561;42.666;23.392;2022-11-15T12:58:53;66.93;;;39.70;;
3101;SDS011;1561;42.666;23.392;2022-11-15T13:04:26;59.43;;;35.93;;
3101;SDS011;1561;42.666;23.392;2022-11-15T13:06:57;69.30;;;38.23;;
3101;SDS011;1561;42.666;23.392;2022-11-15T13:15:35;61.43;;;37.57;;
3101;SDS011;1561;42.666;23.392;2022-11-15T13:18:32;65.67;;;38.07;;
3101;SDS011;1561;42.666;23.392;2022-11-15T13:24:19;60.47;;;35.60;;
3101;SDS011;1561;42.666;23.392;2022-11-15T13:26:46;68.63;;;38.77;;
3101;SDS011;1561;42.666;23.392;2022-11-15T13:29:18;61.90;;;36.77;;
3101;SDS011;1561;42.666;23.392;2022-11-15T13:31:46;52.23;;;33.90;;
3101;SDS011;1561;42.666;23.392;2022-11-15T13:34:16;59.83;;;34.70;;
3101;SDS011;1561;42.666;23.392;2022-11-15T13:37:26;62.87;;;35.60;;
3101;SDS011;1561;42.666;23.392;2022-11-15T13:39:57;73.57;;;37.60;;
3101;SDS011;1561;42.666;23.392;2022-11-15T13:42:42;67.40;;;36.87;;
3101;SDS011;1561;42.666;23.392;2022-11-15T13:45:14;54.10;;;32.93;;
3101;SDS011;1561;42.666;23.392;2022-11-15T13:47:43;60.87;;;37.30;;
3101;SDS011;1561;42.666;23.392;2022-11-15T13:50:16;58.07;;;36.70;;
3101;SDS011;1561;42.666;23.392;2022-11-15T13:52:49;72.53;;;37.50;;
3101;SDS011;1561;42.666;23.392;2022-11-15T13:55:18;68.13;;;38.40;;
3101;SDS011;1561;42.666;23.392;2022-11-15T13:57:50;64.50;;;35.73;;
3101;SDS011;1561;42.666;23.392;2022-11-15T14:03:57;72.03;;;34.57;;
3101;SDS011;1561;42.666;23.392;2022-11-15T14:06:59;60.63;;;35.47;;
3101;SDS011;1561;42.666;23.392;2022-11-15T14:12:29;63.40;;;35.90;;
3101;SDS011;1561;42.666;23.392;2022-11-15T14:15:30;66.67;;;36.20;;
3101;SDS011;1561;42.666;23.392;2022-11-15T14:17:59;62.90;;;37.20;;
3101;SDS011;1561;42.666;23.392;2022-11-15T14:20:32;64.53;;;37.07;;
3101;SDS011;1561;42.666;23.392;2022-11-15T14:23:18;69.53;;;37.43;;
3101;SDS011;1561;42.666;23.392;2022-11-15T14:25:52;66.47;;;36.27;;
3101;SDS011;1561;42.666;23.392;2022-11-15T14:28:30;55.30;;;35.50;;
3101;SDS011;1561;42.666;23.392;2022-11-15T14:31:04;61.60;;;36.20;;
3101;SDS011;1561;42.666;23.392;2022-11-15T14:33:37;76.77;;;43.27;;
3101;SDS011;1561;42.666;23.392;2022-11-15T14:36:12;95.80;;;50.23;;
3101;SDS011;1561;42.666;23.392;2022-11-15T14:38:43;96.30;;;51.60;;
3101;SDS011;1561;42.666;23.392;2022-11-15T14:41:20;91.50;;;51.53;;
3101;SDS011;1561;42.666;23.392;2022-11-15T14:43:50;77.70;;;45.50;;
3101;SDS011;1561;42.666;23.392;2022-11-15T14:46:17;88.77;;;45.77;;
3101;SDS011;1561;42.666;23.392;2022-11-15T14:48:45;84.97;;;45.17;;
3101;SDS011;1561;42.666;23.392;2022-11-15T14:51:18;84.60;;;47.80;;
3101;SDS011;1561;42.666;23.392;2022-11-15T14:53:46;84.80;;;49.90;;
3101;SDS011;1561;42.666;23.392;2022-11-15T14:56:14;114.40;;;62.80;;
3101;SDS011;1561;42.666;23.392;2022-11-15T14:58:42;118.10;;;69.17;;
3101;SDS011;1561;42.666;23.392;2022-11-15T15:01:13;116.47;;;71.50;;
3101;SDS011;1561;42.666;23.392;2022-11-15T15:03:47;130.20;;;71.83;;
3101;SDS011;1561;42.666;23.392;2022-11-15T15:06:27;143.00;;;83.27;;
3101;SDS011;1561;42.666;23.392;2022-11-15T15:08:55;124.43;;;75.70;;
3101;SDS011;1561;42.666;23.392;2022-11-15T15:11:25;128.07;;;76.17;;
3101;SDS011;1561;42.666;23.392;2022-11-15T15:13:55;135.87;;;76.00;;
3101;SDS011;1561;42.666;23.392;2022-11-15T15:16:25;145.93;;;80.00;;
3101;SDS011;1561;42.666;23.392;2022-11-15T15:18:54;166.87;;;97.23;;
3101;SDS011;1561;42.666;23.392;2022-11-15T15:21:22;181.77;;;106.20;;
3101;SDS011;1561;42.666;23.392;2022-11-15T15:23:52;166.30;;;104.37;;
3101;SDS011;1561;42.666;23.392;2022-11-15T15:26:20;181.23;;;107.77;;
3101;SDS011;1561;42.666;23.392;2022-11-15T15:28:47;170.87;;;102.50;;
3101;SDS011;1561;42.666;23.392;2022-11-15T15:31:16;161.20;;;92.90;;